sensor_id;sensor_type;location;lat;lon;timestamp;temperature;humidity
52036;DHT22;38046;49.448;32.074;2023-02-22T00:00:52;4.80;80.40
52036;DHT22;38046;49.448;32.074;2023-02-22T00:03:23;4.80;80.40
52036;DHT22;38046;49.448;32.074;2023-02-22T00:05:54;4.70;80.40
52036;DHT22;38046;49.448;32.074;2023-02-22T00:08:22;4.70;80.10
52036;DHT22;38046;49.448;32.074;2023-02-22T00:10:48;4.60;80.00
52036;DHT22;38046;49.448;32.074;2023-02-22T00:13:18;4.60;79.90
52036;DHT22;38046;49.448;32.074;2023-02-22T00:15:44;4.60;79.80
52036;DHT22;38046;49.448;32.074;2023-02-22T00:18:15;4.60;79.70
52036;DHT22;38046;49.448;32.074;2023-02-22T00:20:41;4.60;79.80
52036;DHT22;38046;49.448;32.074;2023-02-22T00:23:16;4.50;79.30
52036;DHT22;38046;49.448;32.074;2023-02-22T00:25:43;4.50;79.00
52036;DHT22;38046;49.448;32.074;2023-02-22T00:28:09;4.40;78.90
52036;DHT22;38046;49.448;32.074;2023-02-22T00:30:35;4.40;78.90
52036;DHT22;38046;49.448;32.074;2023-02-22T00:33:00;4.40;79.00
52036;DHT22;38046;49.448;32.074;2023-02-22T00:35:28;4.40;79.10
52036;DHT22;38046;49.448;32.074;2023-02-22T00:37:59;4.40;79.40
52036;DHT22;38046;49.448;32.074;2023-02-22T00:40:30;4.40;79.40
52036;DHT22;38046;49.448;32.074;2023-02-22T00:42:57;4.30;79.20
52036;DHT22;38046;49.448;32.074;2023-02-22T00:45:25;4.30;78.90
52036;DHT22;38046;49.448;32.074;2023-02-22T00:47:51;4.30;78.90
52036;DHT22;38046;49.448;32.074;2023-02-22T00:50:19;4.20;78.60
52036;DHT22;38046;49.448;32.074;2023-02-22T00:52:45;4.20;78.60
52036;DHT22;38046;49.448;32.074;2023-02-22T00:55:18;4.10;78.50
52036;DHT22;38046;49.448;32.074;2023-02-22T00:57:44;4.10;78.60
52036;DHT22;38046;49.448;32.074;2023-02-22T01:00:16;4.10;78.70
52036;DHT22;38046;49.448;32.074;2023-02-22T01:02:42;4.10;79.00
52036;DHT22;38046;49.448;32.074;2023-02-22T01:05:10;4.10;79.20
52036;DHT22;38046;49.448;32.074;2023-02-22T01:07:40;4.10;79.20
52036;DHT22;38046;49.448;32.074;2023-02-22T01:10:07;4.00;78.90
52036;DHT22;38046;49.448;32.074;2023-02-22T01:12:34;4.00;78.90
52036;DHT22;38046;49.448;32.074;2023-02-22T01:15:01;4.00;79.10
52036;DHT22;38046;49.448;32.074;2023-02-22T01:17:28;4.00;79.20
52036;DHT22;38046;49.448;32.074;2023-02-22T01:19:54;3.90;79.10
52036;DHT22;38046;49.448;32.074;2023-02-22T01:22:20;3.90;79.10
52036;DHT22;38046;49.448;32.074;2023-02-22T01:24:49;3.90;79.20
52036;DHT22;38046;49.448;32.074;2023-02-22T01:27:16;3.90;79.40
52036;DHT22;38046;49.448;32.074;2023-02-22T01:29:42;3.90;79.50
52036;DHT22;38046;49.448;32.074;2023-02-22T01:32:08;3.90;79.50
52036;DHT22;38046;49.448;32.074;2023-02-22T01:34:36;3.90;79.80
52036;DHT22;38046;49.448;32.074;2023-02-22T01:37:02;3.80;79.70
52036;DHT22;38046;49.448;32.074;2023-02-22T01:39:28;3.80;79.90
52036;DHT22;38046;49.448;32.074;2023-02-22T01:41:53;3.80;80.10
52036;DHT22;38046;49.448;32.074;2023-02-22T01:46:57;3.80;80.00
52036;DHT22;38046;49.448;32.074;2023-02-22T01:49:30;3.80;80.10
52036;DHT22;38046;49.448;32.074;2023-02-22T01:52:00;3.80;80.00
52036;DHT22;38046;49.448;32.074;2023-02-22T01:54:32;3.80;80.10
52036;DHT22;38046;49.448;32.074;2023-02-22T01:57:23;3.80;80.10
52036;DHT22;38046;49.448;32.074;2023-02-22T01:59:56;3.80;80.00
52036;DHT22;38046;49.448;32.074;2023-02-22T02:02:22;3.80;80.00
52036;DHT22;38046;49.448;32.074;2023-02-22T02:04:51;3.80;79.90
52036;DHT22;38046;49.448;32.074;2023-02-22T02:07:20;3.80;80.00
52036;DHT22;38046;49.448;32.074;2023-02-22T02:10:03;3.80;79.90
52036;DHT22;38046;49.448;32.074;2023-02-22T02:12:33;3.80;79.70
52036;DHT22;38046;49.448;32.074;2023-02-22T02:15:25;3.80;79.80
52036;DHT22;38046;49.448;32.074;2023-02-22T02:17:54;3.80;79.80
52036;DHT22;38046;49.448;32.074;2023-02-22T02:28:26;3.80;79.60
52036;DHT22;38046;49.448;32.074;2023-02-22T02:34:02;3.80;78.90
52036;DHT22;38046;49.448;32.074;2023-02-22T02:37:08;3.80;78.90
52036;DHT22;38046;49.448;32.074;2023-02-22T02:39:40;3.80;78.70
52036;DHT22;38046;49.448;32.074;2023-02-22T02:42:13;3.80;78.80
52036;DHT22;38046;49.448;32.074;2023-02-22T02:44:57;3.80;78.90
52036;DHT22;38046;49.448;32.074;2023-02-22T02:47:28;3.80;78.60
52036;DHT22;38046;49.448;32.074;2023-02-22T02:50:02;3.90;78.70
52036;DHT22;38046;49.448;32.074;2023-02-22T02:52:30;3.90;78.60
52036;DHT22;38046;49.448;32.074;2023-02-22T02:54:57;3.90;78.70
52036;DHT22;38046;49.448;32.074;2023-02-22T02:57:24;3.90;78.20
52036;DHT22;38046;49.448;32.074;2023-02-22T02:59:50;3.90;77.90
52036;DHT22;38046;49.448;32.074;2023-02-22T03:07:26;3.90;77.50
52036;DHT22;38046;49.448;32.074;2023-02-22T03:10:20;3.90;77.60
52036;DHT22;38046;49.448;32.074;2023-02-22T03:16:43;4.00;77.50
52036;DHT22;38046;49.448;32.074;2023-02-22T03:24:13;3.90;76.20
52036;DHT22;38046;49.448;32.074;2023-02-22T03:26:46;3.90;76.90
52036;DHT22;38046;49.448;32.074;2023-02-22T03:29:17;3.90;76.80
52036;DHT22;38046;49.448;32.074;2023-02-22T03:31:49;3.90;76.90
52036;DHT22;38046;49.448;32.074;2023-02-22T03:34:21;3.90;76.90
52036;DHT22;38046;49.448;32.074;2023-02-22T03:37:01;3.90;76.60
52036;DHT22;38046;49.448;32.074;2023-02-22T03:39:28;3.90;76.30
52036;DHT22;38046;49.448;32.074;2023-02-22T03:42:03;3.90;76.30
52036;DHT22;38046;49.448;32.074;2023-02-22T03:44:34;3.90;76.30
52036;DHT22;38046;49.448;32.074;2023-02-22T03:47:06;3.80;76.20
52036;DHT22;38046;49.448;32.074;2023-02-22T03:49:34;3.80;76.20
52036;DHT22;38046;49.448;32.074;2023-02-22T03:52:01;3.80;75.80
52036;DHT22;38046;49.448;32.074;2023-02-22T03:54:28;3.80;76.40
52036;DHT22;38046;49.448;32.074;2023-02-22T03:57:09;3.80;76.70
52036;DHT22;38046;49.448;32.074;2023-02-22T03:59:36;3.80;76.80
52036;DHT22;38046;49.448;32.074;2023-02-22T04:02:02;3.70;76.90
52036;DHT22;38046;49.448;32.074;2023-02-22T04:04:28;3.70;77.10
52036;DHT22;38046;49.448;32.074;2023-02-22T04:06:53;3.70;77.30
52036;DHT22;38046;49.448;32.074;2023-02-22T04:09:19;3.70;77.60
52036;DHT22;38046;49.448;32.074;2023-02-22T04:11:45;3.70;77.70
52036;DHT22;38046;49.448;32.074;2023-02-22T04:14:11;3.70;77.70
52036;DHT22;38046;49.448;32.074;2023-02-22T04:16:37;3.70;77.50
52036;DHT22;38046;49.448;32.074;2023-02-22T04:19:02;3.70;77.20
52036;DHT22;38046;49.448;32.074;2023-02-22T04:21:28;3.60;77.20
52036;DHT22;38046;49.448;32.074;2023-02-22T04:23:54;3.50;76.90
52036;DHT22;38046;49.448;32.074;2023-02-22T04:26:19;3.40;76.90
52036;DHT22;38046;49.448;32.074;2023-02-22T04:28:45;3.40;76.80
52036;DHT22;38046;49.448;32.074;2023-02-22T04:31:11;3.30;76.90
52036;DHT22;38046;49.448;32.074;2023-02-22T04:33:36;3.30;77.20
52036;DHT22;38046;49.448;32.074;2023-02-22T04:36:02;3.30;77.10
52036;DHT22;38046;49.448;32.074;2023-02-22T04:38:28;3.20;77.10
52036;DHT22;38046;49.448;32.074;2023-02-22T04:40:54;3.20;77.30
52036;DHT22;38046;49.448;32.074;2023-02-22T04:43:20;3.20;77.50
52036;DHT22;38046;49.448;32.074;2023-02-22T04:45:46;3.10;76.60
52036;DHT22;38046;49.448;32.074;2023-02-22T04:48:11;3.10;76.10
52036;DHT22;38046;49.448;32.074;2023-02-22T04:50:37;3.10;76.00
52036;DHT22;38046;49.448;32.074;2023-02-22T04:53:04;3.00;75.90
52036;DHT22;38046;49.448;32.074;2023-02-22T04:55:29;3.00;75.60
52036;DHT22;38046;49.448;32.074;2023-02-22T04:57:55;2.90;75.40
52036;DHT22;38046;49.448;32.074;2023-02-22T05:00:22;2.90;75.20
52036;DHT22;38046;49.448;32.074;2023-02-22T05:02:48;2.80;75.10
52036;DHT22;38046;49.448;32.074;2023-02-22T05:05:19;2.80;74.50
52036;DHT22;38046;49.448;32.074;2023-02-22T05:07:46;2.70;74.20
52036;DHT22;38046;49.448;32.074;2023-02-22T05:10:12;2.70;74.10
52036;DHT22;38046;49.448;32.074;2023-02-22T05:12:38;2.60;74.00
52036;DHT22;38046;49.448;32.074;2023-02-22T05:15:05;2.60;74.10
52036;DHT22;38046;49.448;32.074;2023-02-22T05:17:31;2.60;73.80
52036;DHT22;38046;49.448;32.074;2023-02-22T05:19:57;2.50;74.50
52036;DHT22;38046;49.448;32.074;2023-02-22T05:22:22;2.50;72.60
52036;DHT22;38046;49.448;32.074;2023-02-22T05:24:49;2.40;72.40
52036;DHT22;38046;49.448;32.074;2023-02-22T05:27:17;2.40;71.90
52036;DHT22;38046;49.448;32.074;2023-02-22T05:29:42;2.30;71.30
52036;DHT22;38046;49.448;32.074;2023-02-22T05:32:08;2.30;71.00
52036;DHT22;38046;49.448;32.074;2023-02-22T05:34:34;2.30;71.00
52036;DHT22;38046;49.448;32.074;2023-02-22T05:36:59;2.20;71.20
52036;DHT22;38046;49.448;32.074;2023-02-22T05:39:25;2.30;71.30
52036;DHT22;38046;49.448;32.074;2023-02-22T05:41:50;2.30;70.80
52036;DHT22;38046;49.448;32.074;2023-02-22T05:44:16;2.30;70.20
52036;DHT22;38046;49.448;32.074;2023-02-22T05:46:42;2.20;70.20
52036;DHT22;38046;49.448;32.074;2023-02-22T05:49:07;2.20;69.70
52036;DHT22;38046;49.448;32.074;2023-02-22T05:51:33;2.20;69.10
52036;DHT22;38046;49.448;32.074;2023-02-22T05:53:59;2.20;69.20
52036;DHT22;38046;49.448;32.074;2023-02-22T05:56:26;2.20;69.10
52036;DHT22;38046;49.448;32.074;2023-02-22T05:58:53;2.10;68.90
52036;DHT22;38046;49.448;32.074;2023-02-22T06:01:20;2.10;68.70
52036;DHT22;38046;49.448;32.074;2023-02-22T06:03:47;2.10;68.90
52036;DHT22;38046;49.448;32.074;2023-02-22T06:06:13;2.10;68.90
52036;DHT22;38046;49.448;32.074;2023-02-22T06:08:39;2.10;68.30
52036;DHT22;38046;49.448;32.074;2023-02-22T06:11:04;2.10;67.70
52036;DHT22;38046;49.448;32.074;2023-02-22T06:13:30;2.00;67.60
52036;DHT22;38046;49.448;32.074;2023-02-22T06:15:56;2.00;67.50
52036;DHT22;38046;49.448;32.074;2023-02-22T06:18:21;2.00;67.10
52036;DHT22;38046;49.448;32.074;2023-02-22T06:20:47;1.90;67.30
52036;DHT22;38046;49.448;32.074;2023-02-22T06:23:12;1.90;67.00
52036;DHT22;38046;49.448;32.074;2023-02-22T06:25:38;1.90;66.60
52036;DHT22;38046;49.448;32.074;2023-02-22T06:28:04;1.90;66.40
52036;DHT22;38046;49.448;32.074;2023-02-22T06:30:30;1.90;66.40
52036;DHT22;38046;49.448;32.074;2023-02-22T06:32:55;1.90;66.20
52036;DHT22;38046;49.448;32.074;2023-02-22T06:35:22;1.90;65.90
52036;DHT22;38046;49.448;32.074;2023-02-22T06:37:48;1.90;65.50
52036;DHT22;38046;49.448;32.074;2023-02-22T06:40:14;2.00;65.10
52036;DHT22;38046;49.448;32.074;2023-02-22T06:42:40;2.00;65.10
52036;DHT22;38046;49.448;32.074;2023-02-22T06:45:06;2.00;64.60
52036;DHT22;38046;49.448;32.074;2023-02-22T06:47:31;2.10;64.60
52036;DHT22;38046;49.448;32.074;2023-02-22T06:49:58;2.10;64.30
52036;DHT22;38046;49.448;32.074;2023-02-22T06:52:25;2.20;63.90
52036;DHT22;38046;49.448;32.074;2023-02-22T06:54:51;2.30;63.90
52036;DHT22;38046;49.448;32.074;2023-02-22T06:57:17;2.30;63.60
52036;DHT22;38046;49.448;32.074;2023-02-22T06:59:43;2.30;63.30
52036;DHT22;38046;49.448;32.074;2023-02-22T07:02:13;2.30;62.90
52036;DHT22;38046;49.448;32.074;2023-02-22T07:04:39;2.40;63.00
52036;DHT22;38046;49.448;32.074;2023-02-22T07:07:05;2.40;63.20
52036;DHT22;38046;49.448;32.074;2023-02-22T07:09:30;2.40;62.90
52036;DHT22;38046;49.448;32.074;2023-02-22T07:11:56;2.40;63.20
52036;DHT22;38046;49.448;32.074;2023-02-22T07:14:22;2.40;62.90
52036;DHT22;38046;49.448;32.074;2023-02-22T07:16:48;2.40;62.80
52036;DHT22;38046;49.448;32.074;2023-02-22T07:19:13;2.40;62.70
52036;DHT22;38046;49.448;32.074;2023-02-22T07:21:39;2.40;62.70
52036;DHT22;38046;49.448;32.074;2023-02-22T07:24:05;2.40;62.40
52036;DHT22;38046;49.448;32.074;2023-02-22T07:26:38;2.40;62.30
52036;DHT22;38046;49.448;32.074;2023-02-22T07:29:04;2.30;61.90
52036;DHT22;38046;49.448;32.074;2023-02-22T07:31:34;2.20;62.00
52036;DHT22;38046;49.448;32.074;2023-02-22T07:34:00;2.20;62.30
52036;DHT22;38046;49.448;32.074;2023-02-22T07:36:26;2.10;62.20
52036;DHT22;38046;49.448;32.074;2023-02-22T07:38:51;2.00;61.90
52036;DHT22;38046;49.448;32.074;2023-02-22T07:41:17;1.90;61.80
52036;DHT22;38046;49.448;32.074;2023-02-22T07:43:42;1.90;62.30
52036;DHT22;38046;49.448;32.074;2023-02-22T07:46:08;1.80;62.60
52036;DHT22;38046;49.448;32.074;2023-02-22T07:48:34;1.80;62.30
52036;DHT22;38046;49.448;32.074;2023-02-22T07:50:59;1.80;62.10
52036;DHT22;38046;49.448;32.074;2023-02-22T07:53:28;1.90;62.70
52036;DHT22;38046;49.448;32.074;2023-02-22T07:55:59;1.80;62.20
52036;DHT22;38046;49.448;32.074;2023-02-22T07:58:27;1.80;62.50
52036;DHT22;38046;49.448;32.074;2023-02-22T08:00:53;1.80;62.70
52036;DHT22;38046;49.448;32.074;2023-02-22T08:03:21;1.70;62.40
52036;DHT22;38046;49.448;32.074;2023-02-22T08:05:52;1.70;62.50
52036;DHT22;38046;49.448;32.074;2023-02-22T08:08:18;1.70;62.60
52036;DHT22;38046;49.448;32.074;2023-02-22T08:10:44;1.70;62.50
52036;DHT22;38046;49.448;32.074;2023-02-22T08:13:10;1.70;62.30
52036;DHT22;38046;49.448;32.074;2023-02-22T08:15:38;1.70;63.30
52036;DHT22;38046;49.448;32.074;2023-02-22T08:18:09;1.70;63.30
52036;DHT22;38046;49.448;32.074;2023-02-22T08:20:36;1.80;63.40
52036;DHT22;38046;49.448;32.074;2023-02-22T08:23:03;1.80;63.60
52036;DHT22;38046;49.448;32.074;2023-02-22T08:25:33;1.80;63.60
52036;DHT22;38046;49.448;32.074;2023-02-22T08:28:14;1.80;63.20
52036;DHT22;38046;49.448;32.074;2023-02-22T08:30:40;1.80;63.10
52036;DHT22;38046;49.448;32.074;2023-02-22T08:33:10;1.70;63.10
52036;DHT22;38046;49.448;32.074;2023-02-22T08:35:39;1.70;63.40
52036;DHT22;38046;49.448;32.074;2023-02-22T08:38:06;1.70;63.30
52036;DHT22;38046;49.448;32.074;2023-02-22T08:40:34;1.70;63.30
52036;DHT22;38046;49.448;32.074;2023-02-22T08:43:01;1.70;63.10
52036;DHT22;38046;49.448;32.074;2023-02-22T08:45:27;1.60;62.90
52036;DHT22;38046;49.448;32.074;2023-02-22T08:47:53;1.50;62.60
52036;DHT22;38046;49.448;32.074;2023-02-22T08:50:26;1.50;62.50
52036;DHT22;38046;49.448;32.074;2023-02-22T08:52:53;1.50;62.50
52036;DHT22;38046;49.448;32.074;2023-02-22T08:55:21;1.50;62.30
52036;DHT22;38046;49.448;32.074;2023-02-22T08:57:47;1.50;62.30
52036;DHT22;38046;49.448;32.074;2023-02-22T09:00:13;1.50;62.50
52036;DHT22;38046;49.448;32.074;2023-02-22T09:02:40;1.40;62.50
52036;DHT22;38046;49.448;32.074;2023-02-22T09:05:06;1.40;62.20
52036;DHT22;38046;49.448;32.074;2023-02-22T09:07:32;1.40;62.50
52036;DHT22;38046;49.448;32.074;2023-02-22T09:09:57;1.30;62.30
52036;DHT22;38046;49.448;32.074;2023-02-22T09:12:23;1.30;62.30
52036;DHT22;38046;49.448;32.074;2023-02-22T09:14:49;1.30;62.80
52036;DHT22;38046;49.448;32.074;2023-02-22T09:17:14;1.40;62.60
52036;DHT22;38046;49.448;32.074;2023-02-22T09:19:40;1.40;62.30
52036;DHT22;38046;49.448;32.074;2023-02-22T09:22:05;1.40;62.70
52036;DHT22;38046;49.448;32.074;2023-02-22T09:24:31;1.40;62.40
52036;DHT22;38046;49.448;32.074;2023-02-22T09:26:57;1.40;62.30
52036;DHT22;38046;49.448;32.074;2023-02-22T09:29:26;1.40;62.10
52036;DHT22;38046;49.448;32.074;2023-02-22T09:31:53;1.40;62.20
52036;DHT22;38046;49.448;32.074;2023-02-22T09:34:20;1.50;62.30
52036;DHT22;38046;49.448;32.074;2023-02-22T09:36:48;1.40;62.20
52036;DHT22;38046;49.448;32.074;2023-02-22T09:39:16;1.40;62.00
52036;DHT22;38046;49.448;32.074;2023-02-22T09:47:23;1.50;62.40
52036;DHT22;38046;49.448;32.074;2023-02-22T09:50:02;1.50;62.50
52036;DHT22;38046;49.448;32.074;2023-02-22T09:52:39;1.50;62.60
52036;DHT22;38046;49.448;32.074;2023-02-22T09:55:11;1.50;62.80
52036;DHT22;38046;49.448;32.074;2023-02-22T09:57:42;1.60;62.70
52036;DHT22;38046;49.448;32.074;2023-02-22T10:00:19;1.60;62.40
52036;DHT22;38046;49.448;32.074;2023-02-22T10:05:33;1.60;62.00
52036;DHT22;38046;49.448;32.074;2023-02-22T10:08:04;1.60;61.80
52036;DHT22;38046;49.448;32.074;2023-02-22T10:10:37;1.60;62.20
52036;DHT22;38046;49.448;32.074;2023-02-22T10:16:06;1.70;62.20
52036;DHT22;38046;49.448;32.074;2023-02-22T10:19:28;1.70;62.00
52036;DHT22;38046;49.448;32.074;2023-02-22T10:25:00;1.70;61.80
52036;DHT22;38046;49.448;32.074;2023-02-22T10:30:29;1.70;61.70
52036;DHT22;38046;49.448;32.074;2023-02-22T10:33:14;1.70;61.60
52036;DHT22;38046;49.448;32.074;2023-02-22T10:35:42;1.70;61.70
52036;DHT22;38046;49.448;32.074;2023-02-22T10:38:20;1.60;61.80
52036;DHT22;38046;49.448;32.074;2023-02-22T10:43:25;1.80;61.50
52036;DHT22;38046;49.448;32.074;2023-02-22T10:45:57;1.80;61.70
52036;DHT22;38046;49.448;32.074;2023-02-22T10:48:26;1.90;62.70
52036;DHT22;38046;49.448;32.074;2023-02-22T10:50:58;1.90;61.70
52036;DHT22;38046;49.448;32.074;2023-02-22T10:53:25;2.00;61.30
52036;DHT22;38046;49.448;32.074;2023-02-22T10:56:05;2.00;61.30
52036;DHT22;38046;49.448;32.074;2023-02-22T10:58:48;2.10;61.30
52036;DHT22;38046;49.448;32.074;2023-02-22T11:01:35;2.10;61.40
52036;DHT22;38046;49.448;32.074;2023-02-22T11:04:17;2.20;61.30
52036;DHT22;38046;49.448;32.074;2023-02-22T11:07:06;2.20;61.00
52036;DHT22;38046;49.448;32.074;2023-02-22T11:09:49;2.30;61.10
52036;DHT22;38046;49.448;32.074;2023-02-22T11:23:20;2.20;59.20
52036;DHT22;38046;49.448;32.074;2023-02-22T11:25:50;2.30;59.70
52036;DHT22;38046;49.448;32.074;2023-02-22T11:28:28;2.30;60.00
52036;DHT22;38046;49.448;32.074;2023-02-22T11:31:13;2.40;60.60
52036;DHT22;38046;49.448;32.074;2023-02-22T11:33:51;2.40;60.80
52036;DHT22;38046;49.448;32.074;2023-02-22T11:36:33;2.50;61.00
52036;DHT22;38046;49.448;32.074;2023-02-22T11:39:03;2.60;60.70
52036;DHT22;38046;49.448;32.074;2023-02-22T11:41:32;2.60;60.80
52036;DHT22;38046;49.448;32.074;2023-02-22T11:44:23;2.70;60.90
52036;DHT22;38046;49.448;32.074;2023-02-22T11:46:50;2.70;60.50
52036;DHT22;38046;49.448;32.074;2023-02-22T11:49:16;2.70;60.60
52036;DHT22;38046;49.448;32.074;2023-02-22T11:58:40;2.70;60.60
52036;DHT22;38046;49.448;32.074;2023-02-22T12:12:50;2.80;60.90
52036;DHT22;38046;49.448;32.074;2023-02-22T12:15:35;2.80;60.90
52036;DHT22;38046;49.448;32.074;2023-02-22T12:20:52;2.80;60.80
52036;DHT22;38046;49.448;32.074;2023-02-22T12:26:14;2.90;61.00
52036;DHT22;38046;49.448;32.074;2023-02-22T12:28:47;2.90;60.70
52036;DHT22;38046;49.448;32.074;2023-02-22T12:31:53;2.90;60.80
52036;DHT22;38046;49.448;32.074;2023-02-22T12:39:54;3.00;61.10
52036;DHT22;38046;49.448;32.074;2023-02-22T12:42:26;3.00;61.30
52036;DHT22;38046;49.448;32.074;2023-02-22T12:45:04;3.00;60.30
52036;DHT22;38046;49.448;32.074;2023-02-22T12:47:37;3.00;61.00
52036;DHT22;38046;49.448;32.074;2023-02-22T12:50:17;3.10;60.90
52036;DHT22;38046;49.448;32.074;2023-02-22T12:53:17;3.10;60.70
52036;DHT22;38046;49.448;32.074;2023-02-22T13:01:40;3.10;60.80
52036;DHT22;38046;49.448;32.074;2023-02-22T13:04:08;3.10;61.00
52036;DHT22;38046;49.448;32.074;2023-02-22T13:15:16;3.20;60.70
52036;DHT22;38046;49.448;32.074;2023-02-22T13:18:09;3.20;60.60
52036;DHT22;38046;49.448;32.074;2023-02-22T13:21:00;3.20;60.60
52036;DHT22;38046;49.448;32.074;2023-02-22T13:23:57;3.20;60.70
52036;DHT22;38046;49.448;32.074;2023-02-22T13:29:14;3.10;60.70
52036;DHT22;38046;49.448;32.074;2023-02-22T13:32:00;3.10;60.80
52036;DHT22;38046;49.448;32.074;2023-02-22T13:37:53;3.00;60.70
52036;DHT22;38046;49.448;32.074;2023-02-22T13:51:57;3.00;60.90
52036;DHT22;38046;49.448;32.074;2023-02-22T13:56:53;3.00;61.20
52036;DHT22;38046;49.448;32.074;2023-02-22T14:01:51;3.00;61.60
52036;DHT22;38046;49.448;32.074;2023-02-22T14:06:51;3.00;61.30
52036;DHT22;38046;49.448;32.074;2023-02-22T14:09:46;3.00;60.90
52036;DHT22;38046;49.448;32.074;2023-02-22T14:17:34;3.00;61.50
52036;DHT22;38046;49.448;32.074;2023-02-22T14:22:50;2.90;61.20
52036;DHT22;38046;49.448;32.074;2023-02-22T14:25:39;2.90;61.50
52036;DHT22;38046;49.448;32.074;2023-02-22T14:28:54;2.80;61.30
52036;DHT22;38046;49.448;32.074;2023-02-22T14:34:08;2.70;61.00
52036;DHT22;38046;49.448;32.074;2023-02-22T14:39:17;2.70;61.10
52036;DHT22;38046;49.448;32.074;2023-02-22T14:41:46;2.60;61.30
52036;DHT22;38046;49.448;32.074;2023-02-22T14:44:16;2.60;61.20
52036;DHT22;38046;49.448;32.074;2023-02-22T14:46:45;2.50;61.50
52036;DHT22;38046;49.448;32.074;2023-02-22T14:49:16;2.50;61.50
52036;DHT22;38046;49.448;32.074;2023-02-22T14:51:54;2.50;61.50
52036;DHT22;38046;49.448;32.074;2023-02-22T14:54:31;2.50;61.60
52036;DHT22;38046;49.448;32.074;2023-02-22T14:57:12;2.50;61.70
52036;DHT22;38046;49.448;32.074;2023-02-22T15:00:12;2.50;61.80
52036;DHT22;38046;49.448;32.074;2023-02-22T15:02:46;2.40;61.70
52036;DHT22;38046;49.448;32.074;2023-02-22T15:05:14;2.40;61.60
52036;DHT22;38046;49.448;32.074;2023-02-22T15:07:50;2.40;61.80
52036;DHT22;38046;49.448;32.074;2023-02-22T15:10:31;2.40;62.00
52036;DHT22;38046;49.448;32.074;2023-02-22T15:13:05;2.40;62.20
52036;DHT22;38046;49.448;32.074;2023-02-22T15:15:57;2.40;62.10
52036;DHT22;38046;49.448;32.074;2023-02-22T15:18:28;2.40;61.80
52036;DHT22;38046;49.448;32.074;2023-02-22T15:21:11;2.40;62.00
52036;DHT22;38046;49.448;32.074;2023-02-22T15:23:54;2.50;61.70
52036;DHT22;38046;49.448;32.074;2023-02-22T15:26:40;2.50;61.50
52036;DHT22;38046;49.448;32.074;2023-02-22T15:29:38;2.50;61.20
52036;DHT22;38046;49.448;32.074;2023-02-22T15:32:33;2.50;61.40
52036;DHT22;38046;49.448;32.074;2023-02-22T15:35:23;2.40;61.30
52036;DHT22;38046;49.448;32.074;2023-02-22T15:38:04;2.50;61.30
52036;DHT22;38046;49.448;32.074;2023-02-22T15:40:31;2.40;61.20
52036;DHT22;38046;49.448;32.074;2023-02-22T15:43:07;2.40;61.20
52036;DHT22;38046;49.448;32.074;2023-02-22T15:45:34;2.40;61.50
52036;DHT22;38046;49.448;32.074;2023-02-22T15:48:00;2.40;61.20
52036;DHT22;38046;49.448;32.074;2023-02-22T15:50:27;2.30;61.20
52036;DHT22;38046;49.448;32.074;2023-02-22T15:53:06;2.30;61.30
52036;DHT22;38046;49.448;32.074;2023-02-22T15:55:38;2.20;61.30
52036;DHT22;38046;49.448;32.074;2023-02-22T16:00:39;2.10;61.40
52036;DHT22;38046;49.448;32.074;2023-02-22T16:03:11;2.10;61.50
52036;DHT22;38046;49.448;32.074;2023-02-22T16:05:43;2.10;61.90
52036;DHT22;38046;49.448;32.074;2023-02-22T16:08:20;2.00;61.80
52036;DHT22;38046;49.448;32.074;2023-02-22T16:11:10;2.00;62.00
52036;DHT22;38046;49.448;32.074;2023-02-22T16:13:41;2.00;62.00
52036;DHT22;38046;49.448;32.074;2023-02-22T16:18:47;2.00;62.20
52036;DHT22;38046;49.448;32.074;2023-02-22T16:21:15;2.00;62.10
52036;DHT22;38046;49.448;32.074;2023-02-22T16:23:45;2.00;62.00
52036;DHT22;38046;49.448;32.074;2023-02-22T16:26:30;2.00;62.00
52036;DHT22;38046;49.448;32.074;2023-02-22T16:29:04;2.00;61.90
52036;DHT22;38046;49.448;32.074;2023-02-22T16:31:36;1.90;62.00
52036;DHT22;38046;49.448;32.074;2023-02-22T16:34:07;1.90;62.20
52036;DHT22;38046;49.448;32.074;2023-02-22T16:36:39;1.90;62.00
52036;DHT22;38046;49.448;32.074;2023-02-22T16:39:07;1.90;62.00
52036;DHT22;38046;49.448;32.074;2023-02-22T16:41:33;1.90;62.00
52036;DHT22;38046;49.448;32.074;2023-02-22T16:43:59;1.90;62.10
52036;DHT22;38046;49.448;32.074;2023-02-22T16:46:24;1.90;62.20
52036;DHT22;38046;49.448;32.074;2023-02-22T16:48:50;1.90;62.20
52036;DHT22;38046;49.448;32.074;2023-02-22T16:51:26;1.90;62.20
52036;DHT22;38046;49.448;32.074;2023-02-22T16:53:56;1.90;62.30
52036;DHT22;38046;49.448;32.074;2023-02-22T16:56:28;1.90;62.10
52036;DHT22;38046;49.448;32.074;2023-02-22T16:58:54;1.80;62.10
52036;DHT22;38046;49.448;32.074;2023-02-22T17:01:20;1.80;62.00
52036;DHT22;38046;49.448;32.074;2023-02-22T17:03:50;1.80;62.00
52036;DHT22;38046;49.448;32.074;2023-02-22T17:06:18;1.80;61.90
52036;DHT22;38046;49.448;32.074;2023-02-22T17:08:44;1.80;61.70
52036;DHT22;38046;49.448;32.074;2023-02-22T17:11:11;1.80;61.80
52036;DHT22;38046;49.448;32.074;2023-02-22T17:13:38;1.70;61.80
52036;DHT22;38046;49.448;32.074;2023-02-22T17:16:12;1.70;61.90
52036;DHT22;38046;49.448;32.074;2023-02-22T17:18:38;1.70;61.80
52036;DHT22;38046;49.448;32.074;2023-02-22T17:21:04;1.70;61.70
52036;DHT22;38046;49.448;32.074;2023-02-22T17:23:30;1.60;61.80
52036;DHT22;38046;49.448;32.074;2023-02-22T17:25:58;1.60;61.70
52036;DHT22;38046;49.448;32.074;2023-02-22T17:28:25;1.60;61.90
52036;DHT22;38046;49.448;32.074;2023-02-22T17:30:55;1.60;62.00
52036;DHT22;38046;49.448;32.074;2023-02-22T17:33:30;1.60;61.80
52036;DHT22;38046;49.448;32.074;2023-02-22T17:35:58;1.60;61.90
52036;DHT22;38046;49.448;32.074;2023-02-22T17:38:23;1.60;61.90
52036;DHT22;38046;49.448;32.074;2023-02-22T17:40:51;1.60;61.90
52036;DHT22;38046;49.448;32.074;2023-02-22T17:43:19;1.60;62.00
52036;DHT22;38046;49.448;32.074;2023-02-22T17:45:45;1.60;62.30
52036;DHT22;38046;49.448;32.074;2023-02-22T17:48:12;1.60;62.20
52036;DHT22;38046;49.448;32.074;2023-02-22T17:50:40;1.60;62.00
52036;DHT22;38046;49.448;32.074;2023-02-22T17:53:06;1.60;62.10
52036;DHT22;38046;49.448;32.074;2023-02-22T17:55:39;1.60;62.20
52036;DHT22;38046;49.448;32.074;2023-02-22T17:58:06;1.50;62.20
52036;DHT22;38046;49.448;32.074;2023-02-22T18:00:35;1.60;62.30
52036;DHT22;38046;49.448;32.074;2023-02-22T18:03:03;1.60;62.50
52036;DHT22;38046;49.448;32.074;2023-02-22T18:05:30;1.50;62.40
52036;DHT22;38046;49.448;32.074;2023-02-22T18:07:57;1.50;62.10
52036;DHT22;38046;49.448;32.074;2023-02-22T18:10:23;1.50;62.00
52036;DHT22;38046;49.448;32.074;2023-02-22T18:12:51;1.60;61.90
52036;DHT22;38046;49.448;32.074;2023-02-22T18:15:18;1.50;61.80
52036;DHT22;38046;49.448;32.074;2023-02-22T18:17:45;1.60;61.80